createdAt,value
2023-01-23T00:00:17.111Z,2.88
2023-01-23T00:02:45.860Z,3.67
2023-01-23T00:05:13.416Z,2.97
2023-01-23T00:07:41.234Z,3.22
2023-01-23T00:10:09.249Z,3.40
2023-01-23T00:12:36.835Z,3.80
2023-01-23T00:15:06.740Z,4.43
2023-01-23T00:17:34.339Z,4.20
2023-01-23T00:20:03.175Z,3.65
2023-01-23T00:22:31.134Z,5.25
2023-01-23T00:24:58.849Z,2.83
2023-01-23T00:27:26.404Z,3.60
2023-01-23T00:29:54.504Z,5.10
2023-01-23T00:32:22.255Z,4.78
2023-01-23T00:34:50.234Z,4.88
2023-01-23T00:37:21.430Z,4.90
2023-01-23T00:39:51.575Z,4.45
2023-01-23T00:42:19.130Z,4.68
2023-01-23T00:44:46.721Z,4.32
2023-01-23T00:47:14.506Z,3.92
2023-01-23T00:49:42.076Z,4.63
2023-01-23T00:52:09.821Z,4.65
2023-01-23T00:54:38.977Z,4.10
2023-01-23T00:57:06.927Z,4.30
2023-01-23T00:59:34.833Z,4.85
2023-01-23T01:02:02.633Z,5.07
2023-01-23T01:04:30.437Z,3.97
2023-01-23T01:06:57.989Z,5.30
2023-01-23T01:09:26.056Z,4.95
2023-01-23T01:11:53.977Z,7.10
2023-01-23T01:14:21.715Z,4.80
2023-01-23T01:16:49.481Z,4.47
2023-01-23T01:19:18.257Z,5.95
2023-01-23T01:21:46.025Z,4.15
2023-01-23T01:24:14.408Z,4.78
2023-01-23T01:26:45.119Z,4.93
2023-01-23T01:29:12.720Z,5.25
2023-01-23T01:31:42.929Z,4.97
2023-01-23T01:34:10.781Z,5.25
2023-01-23T01:36:38.379Z,3.58
2023-01-23T01:39:08.495Z,5.60
2023-01-23T01:41:36.620Z,3.53
2023-01-23T01:44:04.692Z,4.50
2023-01-23T01:46:33.419Z,4.75
2023-01-23T01:49:01.211Z,3.47
2023-01-23T01:51:34.856Z,5.25
2023-01-23T01:54:02.549Z,4.40
2023-01-23T01:56:31.475Z,4.38
2023-01-23T01:59:00.689Z,4.28
2023-01-23T02:01:29.945Z,4.95
2023-01-23T02:03:58.221Z,5.93
2023-01-23T02:06:26.767Z,4.57
2023-01-23T02:09:04.743Z,4.82
2023-01-23T02:11:32.737Z,3.92
2023-01-23T02:14:03.264Z,6.55
2023-01-23T02:16:33.746Z,5.97
2023-01-23T02:19:03.591Z,4.38
2023-01-23T02:21:31.481Z,5.50
2023-01-23T02:24:15.469Z,5.32
2023-01-23T02:26:44.739Z,4.82
2023-01-23T02:29:12.845Z,5.85
2023-01-23T02:31:44.039Z,5.80
2023-01-23T02:34:12.648Z,6.53
2023-01-23T02:36:42.265Z,4.53
2023-01-23T02:39:12.179Z,5.90
2023-01-23T02:41:45.225Z,5.25
2023-01-23T02:44:29.407Z,6.13
2023-01-23T02:46:58.533Z,4.15
2023-01-23T02:49:26.227Z,4.07
2023-01-23T02:51:54.997Z,5.15
2023-01-23T02:54:26.050Z,4.80
2023-01-23T02:56:53.799Z,4.63
2023-01-23T02:59:39.869Z,6.43
2023-01-23T03:02:09.149Z,4.30
2023-01-23T03:04:38.465Z,4.35
2023-01-23T03:07:06.171Z,4.68
2023-01-23T03:09:36.200Z,7.30
2023-01-23T03:12:03.934Z,5.90
2023-01-23T03:14:33.224Z,5.35
2023-01-23T03:17:01.014Z,5.32
2023-01-23T03:19:30.188Z,6.45
2023-01-23T03:21:57.994Z,5.78
2023-01-23T03:24:28.294Z,4.82
2023-01-23T03:26:56.900Z,6.50
2023-01-23T03:29:43.816Z,4.50
2023-01-23T03:32:12.860Z,4.53
2023-01-23T03:34:40.690Z,5.97
2023-01-23T03:37:15.059Z,5.55
2023-01-23T03:40:00.961Z,5.22
2023-01-23T03:42:34.192Z,6.80
2023-01-23T03:45:02.247Z,5.97
2023-01-23T03:47:30.217Z,5.53
2023-01-23T03:49:57.973Z,5.00
2023-01-23T03:52:25.932Z,5.57
2023-01-23T03:54:53.776Z,6.13
2023-01-23T03:57:21.400Z,7.35
2023-01-23T03:59:49.324Z,4.20
2023-01-23T04:02:17.330Z,6.68
2023-01-23T04:04:45.144Z,6.80
2023-01-23T04:07:12.883Z,6.35
2023-01-23T04:09:40.770Z,7.55
2023-01-23T04:12:08.469Z,5.75
2023-01-23T04:14:38.091Z,5.95
2023-01-23T04:17:06.461Z,4.93
2023-01-23T04:19:35.007Z,7.18
2023-01-23T04:22:02.788Z,5.70
2023-01-23T04:24:30.561Z,6.22
2023-01-23T04:26:58.311Z,6.85
2023-01-23T04:29:26.322Z,6.22
2023-01-23T04:31:54.488Z,6.30
2023-01-23T04:34:22.327Z,9.30
2023-01-23T04:36:50.242Z,7.63
2023-01-23T04:39:18.223Z,7.07
2023-01-23T04:41:45.991Z,6.85
2023-01-23T04:44:22.796Z,6.80
2023-01-23T04:46:51.317Z,7.95
2023-01-23T04:49:20.054Z,7.10
2023-01-23T04:51:49.875Z,6.80
2023-01-23T04:54:18.176Z,7.18
2023-01-23T04:56:46.612Z,8.13
2023-01-23T04:59:14.730Z,6.65
2023-01-23T05:01:43.748Z,6.50
2023-01-23T05:04:12.202Z,7.05
2023-01-23T05:06:39.924Z,8.13
2023-01-23T05:09:07.995Z,8.57
2023-01-23T05:11:35.726Z,9.02
2023-01-23T05:14:10.631Z,7.10
2023-01-23T05:16:38.402Z,6.13
2023-01-23T05:19:07.237Z,7.57
2023-01-23T05:21:35.418Z,7.28
2023-01-23T05:24:03.228Z,6.82
2023-01-23T05:26:31.010Z,7.07
2023-01-23T05:28:58.899Z,10.35
2023-01-23T05:31:26.733Z,7.38
2023-01-23T05:33:55.543Z,8.18
2023-01-23T05:36:23.240Z,8.55
2023-01-23T05:38:51.110Z,8.65
2023-01-23T05:41:21.181Z,9.98
2023-01-23T05:43:50.909Z,8.30
2023-01-23T05:46:19.672Z,7.35
2023-01-23T05:48:50.032Z,8.25
2023-01-23T05:51:17.801Z,7.00
2023-01-23T05:53:47.140Z,8.10
2023-01-23T05:56:15.195Z,7.82
2023-01-23T05:58:42.983Z,6.90
2023-01-23T06:01:11.734Z,7.45
2023-01-23T06:03:39.419Z,7.05
2023-01-23T06:06:07.486Z,8.13
2023-01-23T06:08:38.225Z,6.65
2023-01-23T06:11:06.203Z,7.38
2023-01-23T06:13:34.933Z,6.05
2023-01-23T06:16:03.292Z,6.72
2023-01-23T06:18:36.218Z,6.30
2023-01-23T06:21:05.357Z,9.02
2023-01-23T06:23:33.266Z,9.30
2023-01-23T06:26:03.018Z,6.60
2023-01-23T06:28:34.699Z,7.28
2023-01-23T06:31:03.513Z,8.07
2023-01-23T06:33:31.556Z,8.70
2023-01-23T06:36:02.415Z,10.52
2023-01-23T06:38:30.590Z,6.70
2023-01-23T06:40:58.276Z,6.30
2023-01-23T06:43:26.625Z,6.82
2023-01-23T06:45:54.590Z,6.63
2023-01-23T06:48:22.756Z,5.93
2023-01-23T06:50:50.453Z,5.25
2023-01-23T06:53:18.809Z,10.57
2023-01-23T06:55:47.102Z,5.55
2023-01-23T06:58:15.034Z,5.47
2023-01-23T07:00:45.386Z,5.18
2023-01-23T07:03:15.181Z,5.75
2023-01-23T07:05:44.109Z,4.70
2023-01-23T07:08:14.032Z,4.88
2023-01-23T07:10:44.936Z,5.60
2023-01-23T07:13:13.494Z,5.78
2023-01-23T07:15:41.289Z,4.43
2023-01-23T07:18:10.163Z,5.13
2023-01-23T07:20:39.719Z,3.47
2023-01-23T07:23:07.466Z,4.90
2023-01-23T07:25:35.261Z,5.85
2023-01-23T07:28:03.096Z,4.28
2023-01-23T07:30:30.972Z,5.18
2023-01-23T07:32:59.334Z,3.78
2023-01-23T07:35:27.211Z,6.53
2023-01-23T07:37:57.811Z,4.35
2023-01-23T07:40:25.703Z,4.78
2023-01-23T07:42:53.558Z,5.13
2023-01-23T07:45:24.239Z,4.05
2023-01-23T07:47:51.946Z,5.10
2023-01-23T07:50:19.745Z,6.05
2023-01-23T07:52:47.585Z,4.20
2023-01-23T07:55:15.335Z,6.15
2023-01-23T07:57:43.557Z,6.57
2023-01-23T08:00:12.716Z,5.85
2023-01-23T08:02:46.229Z,5.20
2023-01-23T08:05:13.909Z,5.80
2023-01-23T08:07:43.381Z,3.97
2023-01-23T08:10:11.565Z,4.18
2023-01-23T08:12:39.283Z,5.78
2023-01-23T08:15:07.462Z,4.85
2023-01-23T08:17:35.032Z,6.35
2023-01-23T08:20:02.814Z,6.22
2023-01-23T08:22:30.441Z,7.22
2023-01-23T08:24:58.046Z,4.03
2023-01-23T08:27:25.675Z,4.78
2023-01-23T08:29:53.440Z,5.35
2023-01-23T08:32:22.248Z,4.72
2023-01-23T08:34:49.991Z,4.32
2023-01-23T08:37:17.754Z,5.65
2023-01-23T08:39:45.367Z,4.55
2023-01-23T08:42:13.009Z,4.90
2023-01-23T08:44:42.277Z,3.50
2023-01-23T08:47:09.849Z,5.70
2023-01-23T08:49:38.104Z,4.72
2023-01-23T08:52:07.048Z,4.45
2023-01-23T08:54:34.755Z,6.53
2023-01-23T08:57:04.960Z,4.78
2023-01-23T08:59:32.743Z,5.15
2023-01-23T09:02:00.699Z,4.20
2023-01-23T09:04:28.516Z,4.93
2023-01-23T09:07:01.823Z,5.13
2023-01-23T09:11:58.071Z,5.60
2023-01-23T09:14:25.572Z,4.53
2023-01-23T09:16:53.248Z,5.57
2023-01-23T09:19:21.107Z,6.32
2023-01-23T09:21:48.690Z,5.97
2023-01-23T09:24:17.732Z,3.55
2023-01-23T09:26:46.323Z,3.25
2023-01-23T09:29:15.020Z,6.65
2023-01-23T09:31:42.992Z,5.70
2023-01-23T09:34:10.467Z,3.63
2023-01-23T09:36:43.300Z,4.25
2023-01-23T09:39:11.984Z,2.90
2023-01-23T09:41:40.147Z,3.95
2023-01-23T09:44:21.107Z,3.30
2023-01-23T09:46:52.086Z,3.40
2023-01-23T09:49:31.912Z,4.80
2023-01-23T09:52:04.797Z,2.60
2023-01-23T09:54:50.769Z,3.45
2023-01-23T09:57:20.570Z,4.65
2023-01-23T09:59:59.783Z,3.75
2023-01-23T10:02:28.972Z,4.32
2023-01-23T10:04:57.210Z,4.00
2023-01-23T10:07:43.264Z,3.67
2023-01-23T10:10:13.864Z,3.08
2023-01-23T10:13:00.191Z,4.00
2023-01-23T10:15:28.302Z,4.25
2023-01-23T10:18:08.443Z,3.47
2023-01-23T10:21:14.592Z,2.05
2023-01-23T10:23:47.751Z,3.05
2023-01-23T10:26:41.536Z,4.15
2023-01-23T10:31:51.375Z,3.50
2023-01-23T10:34:35.212Z,4.07
2023-01-23T10:37:06.078Z,3.55
2023-01-23T10:39:52.288Z,2.75
2023-01-23T10:42:23.239Z,2.50
2023-01-23T10:44:50.881Z,2.85
2023-01-23T10:47:21.760Z,4.00
2023-01-23T10:49:49.336Z,5.88
2023-01-23T10:52:30.226Z,3.67
2023-01-23T10:54:59.430Z,4.93
2023-01-23T10:57:28.769Z,4.43
2023-01-23T11:00:05.063Z,2.30
2023-01-23T11:02:34.213Z,2.72
2023-01-23T11:05:02.805Z,4.53
2023-01-23T11:07:33.941Z,3.78
2023-01-23T11:10:10.866Z,3.55
2023-01-23T11:12:48.206Z,3.80
2023-01-23T11:15:23.892Z,3.00
2023-01-23T11:17:52.460Z,2.58
2023-01-23T11:20:28.137Z,4.75
2023-01-23T11:23:07.685Z,3.65
2023-01-23T11:25:35.373Z,3.92
2023-01-23T11:28:04.367Z,3.92
2023-01-23T11:30:58.340Z,4.28
2023-01-23T11:33:45.010Z,2.95
2023-01-23T11:36:18.849Z,4.53
2023-01-23T11:38:53.403Z,3.25
2023-01-23T11:41:23.058Z,3.67
2023-01-23T11:43:50.692Z,4.28
2023-01-23T11:46:30.956Z,2.83
2023-01-23T11:49:09.756Z,3.72
2023-01-23T11:51:54.702Z,4.07
2023-01-23T11:54:35.329Z,3.05
2023-01-23T11:57:12.185Z,2.53
2023-01-23T11:59:58.423Z,4.70
2023-01-23T12:02:29.101Z,2.47
2023-01-23T12:05:14.935Z,4.13
2023-01-23T12:07:58.271Z,3.13
2023-01-23T12:10:44.352Z,3.30
2023-01-23T12:13:16.048Z,3.33
2023-01-23T12:16:02.284Z,3.67
2023-01-23T12:18:40.192Z,2.67
2023-01-23T12:21:40.664Z,3.22
2023-01-23T12:24:29.290Z,2.70
2023-01-23T12:27:00.872Z,3.08
2023-01-23T12:29:43.556Z,3.85
2023-01-23T12:32:29.404Z,3.73
2023-01-23T12:35:03.438Z,3.15
2023-01-23T12:37:31.264Z,4.38
2023-01-23T12:40:19.401Z,3.40
2023-01-23T12:43:08.709Z,2.45
2023-01-23T12:45:37.753Z,2.67
2023-01-23T12:48:15.246Z,2.80
2023-01-23T12:51:01.220Z,3.35
2023-01-23T12:53:33.616Z,2.83
2023-01-23T12:56:20.062Z,4.18
2023-01-23T12:58:56.948Z,3.60
2023-01-23T13:01:49.608Z,3.58
2023-01-23T13:04:20.163Z,2.60
2023-01-23T13:06:54.332Z,4.22
2023-01-23T13:09:31.136Z,3.15
2023-01-23T13:12:12.785Z,3.17
2023-01-23T13:17:39.322Z,3.15
2023-01-23T13:20:41.817Z,4.15
2023-01-23T13:23:21.756Z,3.85
2023-01-23T13:25:50.065Z,4.13
2023-01-23T13:28:44.046Z,2.97
2023-01-23T13:31:28.463Z,2.85
2023-01-23T14:24:47.450Z,3.90
2023-01-23T14:35:13.912Z,2.67
2023-01-23T14:43:19.232Z,4.18
2023-01-23T14:45:53.386Z,3.75
2023-01-23T14:48:21.681Z,2.50
2023-01-23T14:50:49.276Z,3.30
2023-01-23T14:53:17.885Z,2.83
2023-01-23T14:55:48.017Z,3.28
2023-01-23T14:58:25.577Z,3.78
2023-01-23T15:03:38.218Z,3.63
2023-01-23T15:06:32.263Z,3.20
2023-01-23T15:09:15.698Z,3.15
2023-01-23T15:11:43.816Z,4.20
2023-01-23T15:14:25.993Z,4.38
2023-01-23T15:16:59.731Z,5.60
2023-01-23T15:19:27.662Z,3.63
2023-01-23T15:22:13.999Z,3.28
2023-01-23T15:24:41.682Z,3.78
2023-01-23T15:27:25.290Z,4.60
2023-01-23T15:32:41.145Z,4.35
2023-01-23T15:35:16.920Z,4.00
2023-01-23T15:37:48.552Z,2.33
2023-01-23T15:40:20.633Z,3.92
2023-01-23T15:43:06.232Z,5.00
2023-01-23T15:45:35.048Z,3.40
2023-01-23T15:56:02.406Z,3.78
2023-01-23T15:58:30.122Z,3.03
2023-01-23T16:00:57.948Z,4.55
2023-01-23T16:03:25.700Z,2.75
2023-01-23T16:05:53.672Z,3.80
2023-01-23T16:08:23.674Z,3.15
2023-01-23T16:10:54.419Z,4.95
2023-01-23T16:13:24.961Z,3.03
2023-01-23T16:15:53.154Z,2.58
2023-01-23T16:18:21.069Z,3.38
2023-01-23T16:20:49.198Z,4.93
2023-01-23T16:23:21.892Z,2.58
2023-01-23T16:25:54.859Z,3.22
2023-01-23T16:50:01.189Z,2.92
2023-01-23T16:52:29.089Z,4.55
2023-01-23T16:54:56.692Z,3.95
2023-01-23T16:57:27.129Z,3.35
2023-01-23T17:02:32.109Z,4.82
2023-01-23T17:13:21.301Z,2.38
2023-01-23T17:21:32.031Z,3.67
2023-01-23T17:24:00.041Z,3.95
2023-01-23T17:26:27.958Z,3.38
2023-01-23T17:28:55.794Z,2.42
2023-01-23T17:31:29.611Z,3.63
2023-01-23T17:33:57.273Z,4.93
2023-01-23T17:36:26.920Z,4.15
2023-01-23T17:38:58.565Z,3.40
2023-01-23T17:41:30.506Z,3.08
2023-01-23T17:49:33.354Z,2.08
2023-01-23T17:52:02.106Z,1.95
2023-01-23T17:54:31.328Z,1.90
2023-01-23T17:56:59.056Z,1.60
2023-01-23T17:59:26.632Z,1.60
2023-01-23T18:01:54.431Z,1.27
2023-01-23T18:04:22.757Z,1.27
2023-01-23T18:06:50.973Z,2.08
2023-01-23T18:09:22.361Z,0.95
2023-01-23T18:11:52.894Z,2.17
2023-01-23T18:14:32.564Z,1.40
2023-01-23T18:17:00.522Z,1.98
2023-01-23T18:27:27.591Z,1.63
2023-01-23T18:32:48.932Z,2.35
2023-01-23T18:35:29.451Z,2.75
2023-01-23T18:40:36.994Z,1.95
2023-01-23T18:48:43.076Z,1.75
2023-01-23T18:51:19.946Z,2.08
2023-01-23T18:53:54.589Z,1.48
2023-01-23T18:56:39.234Z,1.95
2023-01-23T18:59:30.328Z,1.85
2023-01-23T19:02:02.482Z,2.33
2023-01-23T19:04:38.679Z,2.53
2023-01-23T19:07:15.236Z,1.58
2023-01-23T19:09:47.108Z,1.90
2023-01-23T19:12:32.953Z,2.15
2023-01-23T19:15:22.710Z,2.10
2023-01-23T19:18:09.546Z,2.55
2023-01-23T19:20:42.553Z,1.27
2023-01-23T19:23:28.623Z,2.25
2023-01-23T19:25:59.827Z,1.88
2023-01-23T19:28:27.446Z,1.77
2023-01-23T19:30:55.365Z,2.55
2023-01-23T19:33:23.152Z,2.13
2023-01-23T19:35:52.054Z,2.08
2023-01-23T19:38:20.104Z,2.83
2023-01-23T19:51:39.208Z,2.65
2023-01-23T19:56:43.052Z,1.98
2023-01-23T19:59:11.259Z,1.75
2023-01-23T20:01:40.863Z,2.40
2023-01-23T20:04:09.228Z,2.53
2023-01-23T20:06:40.156Z,2.80
2023-01-23T20:09:11.803Z,2.05
2023-01-23T20:11:40.855Z,1.88
2023-01-23T20:14:08.639Z,2.78
2023-01-23T20:16:41.942Z,3.03
2023-01-23T20:29:35.437Z,2.00
2023-01-23T20:32:03.194Z,3.20
2023-01-23T20:34:31.862Z,3.42
2023-01-23T20:39:42.449Z,3.05
2023-01-23T20:42:11.385Z,2.38
2023-01-23T20:44:40.841Z,3.58
2023-01-23T21:30:21.399Z,2.42
2023-01-23T21:32:51.310Z,2.70
2023-01-23T21:35:19.348Z,2.88
2023-01-23T21:37:47.218Z,1.42
2023-01-23T21:40:14.888Z,2.95
2023-01-23T21:42:42.556Z,2.30
2023-01-23T21:45:10.419Z,2.38
2023-01-23T21:47:38.222Z,2.85
2023-01-23T21:50:06.083Z,2.47
2023-01-23T21:52:33.843Z,3.42
2023-01-23T21:55:01.570Z,2.53
2023-01-23T21:57:29.209Z,2.95
2023-01-23T22:00:15.072Z,2.72
2023-01-23T22:05:17.972Z,3.45
2023-01-23T22:10:29.645Z,2.05
2023-01-23T22:15:38.539Z,2.33
2023-01-23T22:18:06.656Z,1.83
2023-01-23T22:23:12.673Z,2.65
2023-01-23T22:25:43.351Z,2.28
2023-01-23T22:33:40.365Z,2.42
2023-01-23T22:38:43.840Z,4.00
2023-01-23T22:41:13.733Z,3.30
2023-01-23T22:43:43.985Z,2.47
2023-01-23T22:46:18.393Z,2.50
2023-01-23T23:03:51.956Z,3.20
2023-01-23T23:06:22.065Z,2.45
2023-01-23T23:08:49.785Z,2.47
